• Join FlightAware (Why Join?)
  • Login
  • US Flag 
10:05PM EDT


 

Airport Tracker/Info


-or-


 

Live Flight TrackerFlight Track Log ✈ UAL4380 ✈ 08-Apr-2013 ✈ KIAH - KCRP

Flight Track Log - Related Links

Times and Time Zones

All times are in EDT time to prevent confusion due to time zone crossing. See the UAL4380 flight status page for this flight to view local times or setup timezone preferences in your user account.

Time Position Orientation Groundspeed Altitude Reporting Facility
EDT Latitude Longitude Course Direction KTS MPH feet Rate Location/Type
10:51PM 29.9639 -95.3433 206° Southwest 151 174 700  Level Houston Center
10:52PM 29.9542 -95.3319 135° Southeast 157 181 1,500 1,260 Climbing Houston Center
10:53PM 29.9275 -95.2747 118° Southeast 205 236 2,600 2,100 Climbing Houston Center
10:54PM 29.8950 -95.2086 120° Southeast 226 260 5,800 3,060 Climbing Houston Center
10:54PM 29.8789 -95.1728 117° Southeast 240 276 6,800 1,920 Climbing Houston Center
10:55PM 29.6750 -95.5032 209° Southwest  Level FlightAware Approximate
10:55PM 29.8558 -95.1469 136° Southeast 249 287 7,800  Level Houston Center
10:56PM 29.5998 -95.5501 206° Southwest  Level FlightAware Approximate
10:56PM 29.7922 -95.1942 213° Southwest 238 274 10,300  Level Houston Center
10:57PM 29.5228 -95.5929 206° Southwest  Level FlightAware Approximate
10:57PM 29.7403 -95.2464 221° Southwest 250 288 11,900  Level Houston Center
10:58PM 29.6836 -95.3031 221° Southwest 272 313 13,400 1,320 Climbing Houston Center
10:59PM 29.6225 -95.3622 220° Southwest 287 330 14,600 1,140 Climbing Houston Center
11:00PM 29.5578 -95.4286 222° Southwest 306 352 15,700 960 Climbing Houston Center
11:01PM 29.4894 -95.4997 222° Southwest 326 375 16,600 1,200 Climbing Houston Center
11:02PM 29.4219 -95.5764 225° Southwest 340 391 18,200 1,680 Climbing Houston Center
11:03PM 29.3572 -95.6506 225° Southwest 334 384 20,100 1,560 Climbing Houston Center
11:04PM 29.2794 -95.7406 225° Southwest 332 382 21,400 900 Climbing Houston Center
11:05PM 29.2094 -95.8217 225° Southwest 353 406 22,000 240 Climbing Houston Center
11:06PM 29.1342 -95.9075 225° Southwest 379 436 22,000  Level Houston Center
11:07PM 29.0611 -95.9903 225° Southwest 397 457 22,000  Level Houston Center
11:08PM 28.9814 -96.0806 225° Southwest 401 461 22,000  Level Houston Center
11:09PM 28.9039 -96.1706 225° Southwest 397 457 22,000  Level Houston Center
11:10PM 28.8264 -96.2583 225° Southwest 394 453 22,000  Level Houston Center
11:11PM 28.7483 -96.3467 225° Southwest 393 452 22,000  Level Houston Center
11:12PM 28.6694 -96.4344 224° Southwest 394 453 22,000 -540 Level Houston Center
11:13PM 28.5922 -96.5214 225° Southwest 390 449 21,000 -1,620 Descending Houston Center
11:13PM 28.5608 -96.5569 225° Southwest 389 448 20,000 -2,280 Descending Houston Center
11:14PM 28.5142 -96.6097 225° Southwest 393 452 18,700 -2,400 Descending Houston Center
11:15PM 28.4514 -96.6850 227° Southwest 390 449 16,600 -2,880 Descending Houston Center
11:15PM 28.4303 -96.7194 235° Southwest 386 444 15,800 -2,100 Descending Houston Center
11:16PM 28.3986 -96.7783 239° Southwest 368 423 14,500 -2,100 Descending Houston Center
11:16PM 28.3786 -96.8158 239° Southwest 365 420 13,700 -1,980 Descending Houston Center
11:17PM 28.3514 -96.8636 237° Southwest 359 413 12,700 -1,800 Descending Houston Center
11:17PM 28.3250 -96.9094 237° Southwest 355 409 11,900 -1,500 Descending Houston Center
11:18PM 28.2969 -96.9594 238° Southwest 350 403 11,200 -1,200 Descending Houston Center
11:18PM 28.2744 -97.0025 239° Southwest 350 403 10,700 -840 Descending Houston Center
11:19PM 28.2464 -97.0525 238° Southwest 331 381 10,400 -420 Descending Houston Center
11:19PM 28.2294 -97.0836 238° Southwest 308 354 10,300 -720 Descending Houston Center
11:20PM 28.2075 -97.1197 235° Southwest 260 299 9,700 -1,500 Descending Houston Center
11:20PM 28.1931 -97.1489 241° Southwest 252 290 8,800 -1,800 Descending Houston Center
11:21PM 28.1708 -97.1889 238° Southwest 246 283 7,900 -1,380 Descending Houston Center
11:21PM 28.1569 -97.2139 238° Southwest 244 281 7,400 -1,140 Descending Houston Center
11:22PM 28.1356 -97.2508 237° Southwest 244 281 6,800 -1,020 Descending Houston Center
11:22PM 28.1194 -97.2797 238° Southwest 247 284 6,400 -900 Descending Houston Center
11:23PM 28.0950 -97.3231 237° Southwest 255 293 5,900 -1,020 Descending Houston Center
11:23PM 28.0814 -97.3494 240° Southwest 257 296 5,400 -1,200 Descending Houston Center
11:24PM 28.0547 -97.3950 236° Southwest 260 299 4,700 -1,140 Descending Houston Center
11:24PM 28.0417 -97.4183 238° Southwest 260 299 4,300 -1,020 Descending Houston Center
11:25PM 28.0178 -97.4619 238° Southwest 261 300 3,700 -1,020 Descending Houston Center
11:25PM 28.0033 -97.4872 237° Southwest 260 299 3,300 -540 Descending Houston Center
11:26PM 27.9825 -97.5261 239° Southwest 226 260 3,200 -240 Descending Houston Center
11:26PM 27.9728 -97.5444 239° Southwest 225 259 3,100 -600 Descending Houston Center
11:27PM 27.9544 -97.5772 238° Southwest 205 236 2,600 -540 Descending Houston Center
11:27PM 27.9403 -97.5944 227° Southwest 212 244 2,600 -600 Level Houston Center
11:28PM 27.9239 -97.6264 240° Southwest 177 204 2,000 -420 Descending Houston Center
11:29PM 27.8808 -97.6181 170° South 152 175 2,000  Level Houston Center
11:30PM 27.8536 -97.5981 147° Southeast 132 152 2,000  Level Houston Center